sim
Sign-in with your pilot id or email,
or register
Callsign
Passwort

Schedule Details

Flight Number: DLH2019
Departure: Dusseldorf International Airport (EDDL) at 18:25
Arrival: Munich Airport (EDDM) at 19:35
Route: Lufthansa Passenger Schedule. Enter filed route here before submitting Pirep.

Weather Information
Getting current METAR information for EDDL 190550Z 05003KT CAVOK 08/05 Q1019 NOSIG
Getting current METAR information for EDDM 190550Z VRB01KT CAVOK 05/04 Q1020 NOSIG

Schedule Frequency

Route Map